Time;durP1;ratioP1;P1;durP2;ratioP2;P2;SDS_P1;SDS_P2;PMS_P1;PMS_P2;Temp;Humidity;BMP_temperature;BMP_pressure;BME280_temperature;BME280_humidity;BME280_pressure;Samples;Min_cycle;Max_cycle;Signal;HPM_P1;HPM_P2
2023/09/28 00:03:00;;;;;;;9.10;4.70;;;19.60;54.20;;;;;;5075814;28;20354;-66
2023/09/28 00:05:32;;;;;;;6.30;3.92;;;19.60;54.60;;;;;;5075129;28;20481;-63
2023/09/28 00:08:02;;;;;;;8.10;4.25;;;19.50;54.30;;;;;;5075111;28;20461;-65
2023/09/28 00:10:30;;;;;;;6.30;4.35;;;19.50;54.40;;;;;;5075141;28;20111;-64
2023/09/28 00:12:57;;;;;;;7.55;4.20;;;19.60;54.30;;;;;;5075705;28;20020;-65
2023/09/28 00:15:26;;;;;;;5.47;4.15;;;19.50;54.50;;;;;;5075180;28;20087;-66
2023/09/28 00:17:54;;;;;;;9.10;4.63;;;19.50;54.40;;;;;;5075036;28;20028;-67
2023/09/28 00:20:23;;;;;;;7.57;3.95;;;19.50;54.50;;;;;;5075351;28;20085;-65
2023/09/28 00:22:51;;;;;;;6.53;3.72;;;19.50;54.70;;;;;;5075292;28;20021;-67
2023/09/28 00:25:19;;;;;;;7.90;4.30;;;19.50;54.60;;;;;;5074318;28;20112;-65
2023/09/28 00:27:50;;;;;;;8.63;4.70;;;19.40;54.80;;;;;;5075260;28;20043;-68
2023/09/28 00:30:20;;;;;;;6.57;3.97;;;19.40;54.60;;;;;;5074131;28;20441;-65
2023/09/28 00:32:47;;;;;;;8.05;4.45;;;19.40;54.60;;;;;;5075552;28;20366;-66
2023/09/28 00:35:13;;;;;;;8.25;4.68;;;19.40;54.60;;;;;;5074838;28;20445;-66
2023/09/28 00:37:39;;;;;;;8.65;4.38;;;19.40;55.00;;;;;;5073916;28;20082;-65
2023/09/28 00:40:51;;;;;;;8.45;4.40;;;19.40;55.00;;;;;;5073985;28;20120;-63
2023/09/28 00:42:59;;;;;;;8.88;4.20;;;19.40;55.00;;;;;;5071021;28;20330;-65
2023/09/28 00:45:27;;;;;;;8.05;4.13;;;19.40;54.90;;;;;;5074818;28;20195;-67
2023/09/28 00:48:00;;;;;;;5.93;4.13;;;19.40;55.00;;;;;;5074856;28;20040;-64
2023/09/28 00:50:28;;;;;;;7.28;4.25;;;19.40;54.70;;;;;;5075760;28;20029;-64
2023/09/28 00:52:58;;;;;;;7.53;4.13;;;19.40;54.80;;;;;;5078207;28;20020;-66
2023/09/28 00:55:25;;;;;;;7.97;4.28;;;19.40;54.80;;;;;;5078324;28;20082;-68
2023/09/28 00:57:51;;;;;;;8.07;4.70;;;19.40;54.70;;;;;;5077415;28;20544;-63
2023/09/28 01:00:18;;;;;;;8.93;4.45;;;19.40;54.90;;;;;;5078937;28;20024;-64
2023/09/28 01:02:50;;;;;;;7.40;4.60;;;19.50;54.70;;;;;;5078588;28;20025;-66
2023/09/28 01:05:44;;;;;;;9.90;4.57;;;19.50;54.60;;;;;;5078193;28;20032;-64
2023/09/28 01:08:14;;;;;;;7.95;4.20;;;19.50;54.70;;;;;;5078811;28;20071;-64
2023/09/28 01:10:41;;;;;;;10.93;4.18;;;19.50;54.50;;;;;;5078510;28;20093;-66
2023/09/28 01:13:12;;;;;;;6.90;4.18;;;19.50;54.60;;;;;;5078426;28;20024;-65
2023/09/28 01:15:39;;;;;;;6.95;4.63;;;19.50;54.60;;;;;;5078172;28;20078;-64
2023/09/28 01:18:09;;;;;;;8.98;4.93;;;19.50;54.70;;;;;;5078273;28;20029;-68
2023/09/28 01:20:37;;;;;;;5.97;4.32;;;19.50;54.70;;;;;;5078032;28;20029;-67
2023/09/28 01:23:04;;;;;;;7.40;4.20;;;19.50;54.70;;;;;;5077023;28;20317;-65
2023/09/28 01:25:31;;;;;;;6.82;4.10;;;19.50;54.90;;;;;;5078107;28;20035;-66
2023/09/28 01:27:57;;;;;;;8.73;4.60;;;19.50;54.60;;;;;;5077919;28;20489;-66
2023/09/28 01:30:23;;;;;;;7.35;4.10;;;19.60;54.60;;;;;;5060277;28;20021;-66
2023/09/28 01:32:50;;;;;;;10.15;4.57;;;19.60;54.60;;;;;;5076914;28;20056;-65
2023/09/28 01:35:19;;;;;;;7.05;4.30;;;19.60;54.70;;;;;;5076595;28;20028;-63
2023/09/28 01:38:18;;;;;;;5.95;3.90;;;19.60;54.70;;;;;;5076705;28;20032;-65
2023/09/28 01:40:46;;;;;;;7.65;4.10;;;19.60;55.00;;;;;;5078220;28;20035;-65
2023/09/28 01:43:13;;;;;;;7.20;4.40;;;19.60;54.60;;;;;;5077873;28;20024;-66
2023/09/28 01:45:39;;;;;;;7.65;3.92;;;19.60;54.60;;;;;;5077526;28;20051;-67
2023/09/28 01:48:06;;;;;;;9.70;4.22;;;19.60;54.50;;;;;;5076677;28;20446;-67
2023/09/28 01:50:33;;;;;;;6.18;4.15;;;19.60;54.60;;;;;;5077423;28;20472;-65
2023/09/28 01:52:59;;;;;;;7.68;4.32;;;19.60;54.60;;;;;;5077375;28;20495;-65
2023/09/28 01:55:25;;;;;;;6.53;4.32;;;19.60;54.70;;;;;;5076338;28;20036;-66
2023/09/28 01:57:51;;;;;;;8.48;4.55;;;19.60;54.80;;;;;;5077514;28;20025;-65
2023/09/28 02:00:18;;;;;;;5.90;4.38;;;19.60;54.80;;;;;;5076679;28;20027;-64
2023/09/28 02:02:45;;;;;;;5.60;4.07;;;19.60;54.70;;;;;;5076630;28;20035;-65
2023/09/28 02:05:11;;;;;;;7.25;4.63;;;19.60;54.70;;;;;;5077123;28;20461;-64
2023/09/28 02:07:38;;;;;;;7.18;4.55;;;19.60;54.90;;;;;;5077124;28;20108;-64
2023/09/28 02:10:05;;;;;;;7.40;4.38;;;19.50;54.90;;;;;;5077338;28;20029;-66
2023/09/28 02:12:31;;;;;;;9.02;4.18;;;19.50;55.00;;;;;;5077093;28;20098;-64
2023/09/28 02:14:59;;;;;;;7.35;4.43;;;19.50;55.10;;;;;;5077088;28;20024;-64
2023/09/28 02:17:28;;;;;;;6.25;4.47;;;19.50;55.10;;;;;;5077445;28;20055;-65
2023/09/28 02:19:54;;;;;;;9.25;4.50;;;19.50;55.20;;;;;;5076858;28;20017;-64
2023/09/28 02:22:20;;;;;;;8.50;4.22;;;19.50;55.20;;;;;;5076800;28;20096;-64
2023/09/28 02:24:46;;;;;;;6.78;4.47;;;19.50;55.10;;;;;;5076990;28;20021;-65
2023/09/28 02:27:13;;;;;;;8.13;4.88;;;19.50;55.30;;;;;;5076968;28;20093;-65
2023/09/28 02:29:39;;;;;;;8.60;4.50;;;19.40;55.50;;;;;;5077233;28;20025;-64
2023/09/28 02:32:05;;;;;;;8.88;4.35;;;19.40;55.30;;;;;;5076903;28;20099;-66
2023/09/28 02:34:34;;;;;;;7.55;4.38;;;19.40;55.50;;;;;;5076952;28;20032;-68
2023/09/28 02:37:01;;;;;;;8.80;4.60;;;19.40;55.50;;;;;;5076212;28;20051;-65
2023/09/28 02:39:28;;;;;;;7.07;4.57;;;19.40;55.40;;;;;;5076757;28;20074;-66
2023/09/28 02:41:55;;;;;;;7.55;4.40;;;19.40;55.40;;;;;;5075541;28;20033;-67
2023/09/28 02:44:21;;;;;;;8.43;4.63;;;19.40;55.40;;;;;;5076541;28;20061;-64
2023/09/28 02:46:48;;;;;;;5.70;4.15;;;19.40;55.50;;;;;;5076364;28;20028;-66
2023/09/28 02:49:14;;;;;;;7.45;4.47;;;19.40;55.30;;;;;;5076217;28;20029;-64
2023/09/28 02:51:42;;;;;;;8.02;4.75;;;19.40;55.40;;;;;;5076539;28;20109;-66
2023/09/28 02:54:09;;;;;;;8.02;4.25;;;19.40;55.30;;;;;;5076877;28;20047;-67
2023/09/28 02:56:35;;;;;;;8.18;4.35;;;19.40;55.30;;;;;;5076026;28;20075;-67
2023/09/28 02:59:04;;;;;;;6.35;4.28;;;19.40;55.50;;;;;;5076121;28;20017;-67
2023/09/28 03:01:31;;;;;;;9.60;5.00;;;19.40;55.40;;;;;;5076052;28;20074;-66
2023/09/28 03:04:00;;;;;;;8.40;4.35;;;19.40;55.40;;;;;;5076275;28;20043;-65
2023/09/28 03:06:27;;;;;;;7.85;4.35;;;19.40;55.30;;;;;;5076543;28;20478;-64
2023/09/28 03:08:53;;;;;;;7.82;4.38;;;19.40;55.20;;;;;;5076195;28;20008;-65
2023/09/28 03:11:19;;;;;;;6.50;4.43;;;19.40;55.30;;;;;;5075904;28;20028;-66
2023/09/28 03:13:45;;;;;;;9.30;4.47;;;19.40;55.30;;;;;;5075301;28;20036;-67
2023/09/28 03:16:11;;;;;;;6.90;4.43;;;19.40;55.40;;;;;;5075732;28;20025;-64
2023/09/28 03:18:38;;;;;;;9.82;5.05;;;19.40;55.50;;;;;;5075668;28;20353;-65
2023/09/28 03:21:08;;;;;;;8.13;4.70;;;19.40;55.60;;;;;;5075687;28;20081;-66
2023/09/28 03:23:34;;;;;;;8.10;4.68;;;19.40;55.40;;;;;;5076006;28;20114;-64
2023/09/28 03:26:01;;;;;;;9.80;4.88;;;19.40;55.50;;;;;;5074578;28;20341;-68
2023/09/28 03:28:30;;;;;;;8.20;4.20;;;19.40;55.60;;;;;;5075674;28;20039;-64
2023/09/28 03:30:56;;;;;;;8.60;4.50;;;19.30;55.70;;;;;;5075745;28;20021;-63
2023/09/28 03:33:22;;;;;;;8.50;4.90;;;19.30;55.70;;;;;;5076154;28;20039;-66
2023/09/28 03:35:48;;;;;;;9.88;4.40;;;19.30;55.90;;;;;;5075646;28;20097;-65
2023/09/28 03:38:15;;;;;;;8.57;4.50;;;19.30;55.70;;;;;;5075450;28;20090;-65
2023/09/28 03:40:43;;;;;;;8.60;4.88;;;19.30;55.80;;;;;;5075446;28;20017;-64
2023/09/28 03:43:09;;;;;;;8.65;4.00;;;19.20;55.80;;;;;;5075768;28;20082;-64
2023/09/28 03:45:35;;;;;;;9.90;4.45;;;19.20;55.90;;;;;;5075922;28;20013;-64
2023/09/28 03:48:04;;;;;;;8.32;4.72;;;19.30;55.80;;;;;;5075429;28;20039;-65
2023/09/28 03:50:30;;;;;;;9.35;4.45;;;19.20;55.90;;;;;;5075322;28;20446;-66
2023/09/28 03:52:56;;;;;;;9.95;4.30;;;19.20;55.80;;;;;;5075895;28;20107;-65
2023/09/28 03:55:22;;;;;;;8.45;4.35;;;19.20;55.90;;;;;;5075277;28;20032;-66
2023/09/28 03:57:48;;;;;;;5.40;3.80;;;19.20;55.80;;;;;;5075512;28;20055;-65
2023/09/28 04:00:16;;;;;;;7.32;3.85;;;19.20;55.90;;;;;;5075578;28;20021;-68
2023/09/28 04:02:47;;;;;;;7.15;3.92;;;19.30;55.90;;;;;;5074348;28;20327;-66
2023/09/28 04:05:13;;;;;;;8.23;4.25;;;19.20;55.80;;;;;;5075464;28;20021;-66
2023/09/28 04:07:41;;;;;;;7.90;4.32;;;19.20;55.80;;;;;;5075485;28;20096;-67
2023/09/28 04:10:11;;;;;;;6.57;4.00;;;19.30;55.90;;;;;;5074269;28;20461;-64
2023/09/28 04:12:38;;;;;;;6.50;4.00;;;19.30;56.00;;;;;;5075217;28;20029;-66
2023/09/28 04:15:05;;;;;;;6.70;3.70;;;19.20;56.00;;;;;;5075263;28;20036;-65
2023/09/28 04:17:34;;;;;;;6.50;4.28;;;19.20;56.20;;;;;;5074936;28;20108;-66
2023/09/28 04:20:00;;;;;;;7.22;4.18;;;19.20;56.20;;;;;;5075354;28;20040;-66
2023/09/28 04:22:26;;;;;;;6.97;4.00;;;19.20;56.20;;;;;;5074120;28;20491;-63
2023/09/28 04:24:56;;;;;;;8.45;4.18;;;19.10;56.10;;;;;;5075051;28;20021;-66
2023/09/28 04:27:23;;;;;;;7.75;4.20;;;19.20;56.20;;;;;;5078862;28;20055;-66
2023/09/28 04:29:49;;;;;;;5.88;3.22;;;19.10;56.20;;;;;;5078988;28;20081;-63
2023/09/28 04:32:22;;;;;;;6.03;4.28;;;19.20;56.20;;;;;;5079236;28;20029;-64
2023/09/28 04:34:48;;;;;;;10.25;4.40;;;19.10;56.30;;;;;;5079281;28;20122;-65
2023/09/28 04:37:19;;;;;;;7.28;4.38;;;19.10;56.30;;;;;;5078578;28;20136;-65
2023/09/28 04:39:45;;;;;;;6.88;4.40;;;19.10;56.20;;;;;;5079066;28;20039;-66
2023/09/28 04:42:12;;;;;;;7.53;4.10;;;19.00;56.40;;;;;;5077780;28;20397;-65
2023/09/28 04:44:43;;;;;;;5.35;3.85;;;19.00;56.50;;;;;;5078590;28;20037;-64
2023/09/28 04:47:10;;;;;;;6.13;3.88;;;19.00;56.50;;;;;;5078654;28;20037;-65
2023/09/28 04:49:36;;;;;;;8.50;4.50;;;18.90;56.70;;;;;;5078919;28;20033;-68
2023/09/28 04:52:02;;;;;;;5.85;3.90;;;18.90;56.70;;;;;;5078590;28;20084;-65
2023/09/28 04:54:28;;;;;;;5.97;4.00;;;18.90;56.70;;;;;;5078474;28;20142;-65
2023/09/28 04:56:55;;;;;;;5.88;4.18;;;18.80;57.00;;;;;;5078973;28;20455;-67
2023/09/28 04:59:22;;;;;;;7.30;4.10;;;18.80;57.20;;;;;;5078391;28;20035;-66
2023/09/28 05:01:48;;;;;;;7.95;3.97;;;18.70;57.10;;;;;;5078353;28;20040;-64
2023/09/28 05:04:14;;;;;;;6.97;3.70;;;18.70;57.30;;;;;;5077298;28;20016;-63
2023/09/28 05:06:41;;;;;;;9.00;4.68;;;18.60;57.40;;;;;;5078317;28;20464;-67
2023/09/28 05:09:10;;;;;;;6.63;4.30;;;18.60;57.50;;;;;;5077256;28;20028;-65
2023/09/28 05:11:36;;;;;;;7.82;3.90;;;18.60;57.50;;;;;;5078507;28;20095;-65
2023/09/28 05:14:02;;;;;;;6.15;3.83;;;18.60;57.60;;;;;;5077153;28;20417;-65
2023/09/28 05:16:28;;;;;;;7.95;4.18;;;18.50;57.60;;;;;;5078116;28;20032;-65
2023/09/28 05:18:59;;;;;;;5.65;4.00;;;18.60;57.70;;;;;;5078338;28;20024;-66
2023/09/28 05:21:25;;;;;;;8.93;4.40;;;18.60;57.60;;;;;;5078045;28;20024;-66
2023/09/28 05:23:51;;;;;;;11.25;4.88;;;18.60;57.60;;;;;;5078510;28;20036;-67
2023/09/28 05:26:17;;;;;;;8.30;4.55;;;18.60;57.50;;;;;;5076915;28;20107;-63
2023/09/28 05:28:46;;;;;;;9.05;4.72;;;18.60;57.80;;;;;;5078169;28;20020;-67
2023/09/28 05:31:12;;;;;;;7.28;3.70;;;18.70;57.70;;;;;;5077832;28;20029;-68
2023/09/28 05:33:38;;;;;;;7.57;4.63;;;18.80;57.50;;;;;;5078113;28;20221;-67
2023/09/28 05:36:04;;;;;;;7.97;4.15;;;18.90;57.30;;;;;;5076458;28;20055;-66
2023/09/28 05:38:30;;;;;;;8.73;4.15;;;19.00;57.10;;;;;;5076604;28;20452;-64
2023/09/28 05:40:56;;;;;;;12.00;4.35;;;19.10;57.10;;;;;;5077955;28;20028;-66
2023/09/28 05:43:22;;;;;;;6.90;4.45;;;19.30;56.80;;;;;;5077577;28;20048;-68
2023/09/28 05:45:48;;;;;;;5.63;4.32;;;19.50;56.70;;;;;;5077547;28;20122;-64
2023/09/28 05:48:14;;;;;;;10.27;4.95;;;19.70;56.30;;;;;;5076531;28;20032;-63
2023/09/28 05:50:41;;;;;;;8.15;4.88;;;20.10;56.00;;;;;;5077496;28;20025;-64
2023/09/28 05:53:07;;;;;;;7.60;4.55;;;20.40;55.60;;;;;;5077698;28;20036;-66
2023/09/28 05:55:36;;;;;;;6.38;4.13;;;20.60;55.10;;;;;;5077243;28;20032;-62
2023/09/28 05:58:03;;;;;;;7.47;4.60;;;20.90;54.80;;;;;;5077797;28;20361;-66
2023/09/28 06:00:29;;;;;;;10.38;4.82;;;21.30;54.20;;;;;;5076342;28;20437;-67
2023/09/28 06:02:55;;;;;;;11.02;5.05;;;21.60;53.20;;;;;;5077188;28;20457;-64
2023/09/28 06:05:21;;;;;;;9.52;4.68;;;21.80;52.90;;;;;;5077284;28;20024;-63
2023/09/28 06:07:54;;;;;;;6.15;4.18;;;22.10;52.50;;;;;;5077145;28;20035;-65
2023/09/28 06:10:21;;;;;;;9.15;4.40;;;22.40;52.30;;;;;;5077020;28;20028;-63
2023/09/28 06:12:49;;;;;;;11.60;5.10;;;22.60;51.70;;;;;;5076984;28;20473;-68
2023/09/28 06:15:15;;;;;;;8.73;4.63;;;22.90;51.10;;;;;;5076800;28;20056;-67
2023/09/28 06:17:41;;;;;;;8.30;4.15;;;23.20;50.60;;;;;;5077143;28;20457;-66
2023/09/28 06:20:09;;;;;;;8.15;4.65;;;23.40;50.40;;;;;;5075962;28;20027;-65
2023/09/28 06:22:35;;;;;;;7.30;4.88;;;23.70;49.70;;;;;;5077105;28;20032;-66
2023/09/28 06:25:02;;;;;;;7.03;4.63;;;23.90;49.20;;;;;;5077297;28;20203;-65
2023/09/28 06:27:28;;;;;;;8.30;4.30;;;24.00;48.80;;;;;;5075777;28;20024;-62
2023/09/28 06:29:55;;;;;;;7.35;4.47;;;24.20;48.20;;;;;;5076686;28;20036;-66
2023/09/28 06:32:22;;;;;;;8.30;4.57;;;24.40;47.60;;;;;;5075683;28;20399;-68
2023/09/28 06:34:48;;;;;;;7.57;4.18;;;24.50;47.40;;;;;;5076785;28;20036;-66
2023/09/28 06:37:14;;;;;;;7.68;4.47;;;24.70;47.30;;;;;;5076380;28;20496;-63
2023/09/28 06:39:41;;;;;;;7.70;4.15;;;24.90;47.00;;;;;;5075547;28;20024;-65
2023/09/28 06:44:36;;;;;;;5.85;4.10;;;25.40;46.70;;;;;;5077161;28;20392;-67
2023/09/28 06:47:02;;;;;;;6.70;4.75;;;25.60;46.20;;;;;;5076596;28;20020;-67
2023/09/28 06:49:28;;;;;;;7.50;4.20;;;25.70;46.00;;;;;;5076204;28;20033;-67
2023/09/28 06:51:54;;;;;;;9.70;4.60;;;25.90;45.90;;;;;;5076528;28;20028;-65
2023/09/28 06:54:20;;;;;;;6.55;3.92;;;26.00;45.90;;;;;;5076637;28;20241;-64
2023/09/28 06:56:49;;;;;;;7.20;4.28;;;26.20;45.90;;;;;;5076071;28;20025;-66
2023/09/28 06:59:15;;;;;;;6.00;4.38;;;26.30;45.70;;;;;;5075136;28;20031;-64
2023/09/28 07:01:42;;;;;;;9.20;4.53;;;26.30;45.40;;;;;;5075106;28;20040;-67
2023/09/28 07:04:08;;;;;;;7.28;4.28;;;26.40;45.40;;;;;;5075319;28;20028;-67
2023/09/28 07:06:34;;;;;;;7.93;4.35;;;26.40;45.20;;;;;;5075019;28;20020;-66
2023/09/28 07:09:01;;;;;;;7.30;4.10;;;26.40;44.90;;;;;;5075926;28;20094;-65
2023/09/28 07:11:27;;;;;;;8.35;4.50;;;26.50;44.90;;;;;;5075812;28;20017;-67
2023/09/28 07:13:53;;;;;;;5.97;4.20;;;26.50;44.70;;;;;;5074880;28;20031;-64
2023/09/28 07:16:19;;;;;;;7.07;4.47;;;26.50;44.70;;;;;;5075755;28;20035;-65
2023/09/28 07:18:45;;;;;;;6.93;3.95;;;26.50;44.70;;;;;;5074716;28;20097;-65
2023/09/28 07:21:11;;;;;;;7.63;4.20;;;26.40;44.70;;;;;;5076268;28;20422;-67
2023/09/28 07:23:39;;;;;;;7.38;4.22;;;26.50;44.70;;;;;;5075687;28;20035;-66
2023/09/28 07:26:17;;;;;;;6.05;4.10;;;26.50;44.80;;;;;;5076128;28;20012;-66
2023/09/28 07:28:46;;;;;;;6.85;4.40;;;26.50;44.40;;;;;;5075637;28;20099;-66
2023/09/28 07:31:13;;;;;;;11.93;4.80;;;26.50;44.40;;;;;;5075862;28;20016;-64
2023/09/28 07:33:40;;;;;;;7.07;4.63;;;26.50;43.40;;;;;;5075527;28;20032;-63
2023/09/28 07:36:07;;;;;;;10.02;4.45;;;26.50;43.80;;;;;;5074253;28;20040;-64
2023/09/28 07:38:33;;;;;;;8.85;4.40;;;26.50;43.90;;;;;;5075604;28;20033;-64
2023/09/28 07:41:01;;;;;;;8.32;5.00;;;26.60;43.30;;;;;;5075449;28;20040;-65
2023/09/28 07:43:28;;;;;;;7.93;4.60;;;26.50;43.00;;;;;;5057898;28;20032;-65
2023/09/28 07:45:54;;;;;;;9.70;4.93;;;26.60;43.40;;;;;;5074429;28;20031;-66
2023/09/28 07:48:20;;;;;;;7.22;4.25;;;26.60;43.50;;;;;;5074404;28;20109;-66
2023/09/28 07:50:47;;;;;;;9.50;4.60;;;26.60;43.10;;;;;;5075346;28;20327;-65
2023/09/28 07:53:13;;;;;;;8.77;4.75;;;26.60;42.30;;;;;;5075611;28;20020;-66
2023/09/28 07:55:39;;;;;;;8.13;4.53;;;26.50;42.10;;;;;;5074263;28;20043;-65
2023/09/28 07:58:05;;;;;;;13.30;4.70;;;26.50;41.80;;;;;;5075529;28;20028;-64
2023/09/28 08:00:33;;;;;;;10.75;4.70;;;26.40;42.90;;;;;;5074805;28;20024;-67
2023/09/28 08:02:58;;;;;;;8.57;4.70;;;26.40;42.10;;;;;;5075512;28;20028;-64
2023/09/28 08:05:25;;;;;;;6.53;4.50;;;26.40;42.70;;;;;;5075127;28;20047;-65
2023/09/28 08:07:50;;;;;;;8.52;4.43;;;26.40;42.30;;;;;;5074274;28;20028;-66
2023/09/28 08:10:16;;;;;;;12.30;5.10;;;26.50;42.50;;;;;;5075726;28;20130;-63
2023/09/28 08:12:44;;;;;;;7.60;4.45;;;26.50;41.60;;;;;;5075461;28;20100;-64
2023/09/28 08:15:10;;;;;;;8.45;4.65;;;26.50;41.90;;;;;;5074160;28;20050;-66
2023/09/28 08:17:41;;;;;;;9.20;4.47;;;26.50;41.70;;;;;;5074099;28;20020;-66
2023/09/28 08:20:07;;;;;;;7.70;4.53;;;26.40;42.10;;;;;;5075358;28;20036;-66
2023/09/28 08:22:35;;;;;;;6.35;4.40;;;26.50;42.50;;;;;;5075336;28;20330;-64
2023/09/28 08:25:05;;;;;;;7.68;4.40;;;26.50;42.40;;;;;;5074920;28;20024;-64
2023/09/28 08:27:35;;;;;;;10.00;4.63;;;26.60;42.40;;;;;;5074936;28;20353;-66
2023/09/28 08:30:03;;;;;;;8.40;4.35;;;26.70;42.20;;;;;;5074966;28;20028;-65
2023/09/28 08:32:31;;;;;;;9.00;4.60;;;26.80;41.90;;;;;;5074946;28;20029;-66
2023/09/28 08:34:57;;;;;;;9.65;4.60;;;26.90;41.70;;;;;;5074866;28;20107;-65
2023/09/28 08:37:24;;;;;;;9.23;4.68;;;26.90;41.60;;;;;;5074704;28;20052;-66
2023/09/28 08:39:58;;;;;;;7.10;5.05;;;26.90;41.00;;;;;;5074822;28;20036;-64
2023/09/28 08:42:28;;;;;;;11.30;5.22;;;26.90;40.10;;;;;;5074836;28;20039;-67
2023/09/28 08:45:00;;;;;;;9.10;5.07;;;26.90;40.70;;;;;;5074746;28;20508;-67
2023/09/28 08:47:29;;;;;;;8.35;4.82;;;26.90;41.20;;;;;;5074795;28;20032;-66
2023/09/28 08:49:56;;;;;;;7.72;4.60;;;27.00;40.50;;;;;;5075064;28;20036;-63
2023/09/28 08:52:24;;;;;;;8.77;4.70;;;27.00;40.80;;;;;;5075047;28;20082;-65
2023/09/28 08:54:52;;;;;;;6.35;4.28;;;27.10;40.80;;;;;;5074641;28;20460;-64
2023/09/28 08:57:18;;;;;;;8.40;4.72;;;27.10;40.70;;;;;;5074623;28;20028;-63
2023/09/28 08:59:44;;;;;;;13.93;5.28;;;27.20;40.40;;;;;;5073886;28;20039;-64
2023/09/28 09:02:12;;;;;;;7.95;4.65;;;27.30;40.90;;;;;;5074966;28;20486;-65
2023/09/28 09:04:38;;;;;;;9.48;4.70;;;27.30;40.90;;;;;;5073664;28;20112;-65
2023/09/28 09:07:08;;;;;;;8.25;4.90;;;27.30;40.70;;;;;;5074625;28;20429;-64
2023/09/28 09:09:39;;;;;;;6.88;4.63;;;27.30;40.70;;;;;;5075208;28;20070;-67
2023/09/28 09:12:09;;;;;;;10.00;4.90;;;27.40;40.50;;;;;;5075256;28;20063;-67
2023/09/28 09:14:35;;;;;;;7.78;4.72;;;27.30;40.50;;;;;;5078621;28;20025;-66
2023/09/28 09:17:02;;;;;;;8.23;4.95;;;27.30;40.70;;;;;;5077077;28;20025;-65
2023/09/28 09:19:32;;;;;;;10.50;4.95;;;27.30;40.60;;;;;;5077088;28;20059;-66
2023/09/28 09:21:58;;;;;;;10.32;5.15;;;27.40;40.60;;;;;;5078546;28;20338;-66
2023/09/28 09:24:32;;;;;;;7.78;4.97;;;27.40;40.70;;;;;;5078178;28;20031;-65
2023/09/28 09:27:04;;;;;;;8.98;5.38;;;27.20;39.80;;;;;;5077853;28;20426;-65
2023/09/28 09:29:30;;;;;;;10.38;5.25;;;27.20;39.50;;;;;;5077752;28;20163;-65
2023/09/28 09:32:02;;;;;;;8.55;5.55;;;27.30;40.40;;;;;;5078039;28;20111;-65
2023/09/28 09:34:31;;;;;;;7.32;5.25;;;27.30;40.10;;;;;;5077710;28;20024;-66
2023/09/28 09:36:58;;;;;;;11.05;5.53;;;27.10;38.50;;;;;;5077531;28;20044;-67
2023/09/28 09:39:26;;;;;;;12.98;5.60;;;27.20;36.20;;;;;;5077940;28;20065;-66
2023/09/28 09:41:53;;;;;;;9.75;5.50;;;27.10;36.00;;;;;;5078164;28;20024;-65
2023/09/28 09:44:20;;;;;;;9.00;5.53;;;27.20;37.00;;;;;;5077464;28;20163;-65
2023/09/28 09:46:50;;;;;;;12.73;5.80;;;27.10;36.20;;;;;;5077838;28;20024;-64
2023/09/28 09:49:18;;;;;;;8.07;5.40;;;27.10;35.20;;;;;;5076645;28;20046;-66
2023/09/28 09:51:48;;;;;;;9.60;5.40;;;27.10;35.60;;;;;;5076623;28;20048;-67
2023/09/28 09:54:15;;;;;;;10.02;5.90;;;27.20;35.20;;;;;;5077578;28;20082;-65
2023/09/28 09:56:49;;;;;;;8.93;5.45;;;27.30;35.30;;;;;;5077270;28;20025;-65
2023/09/28 09:59:17;;;;;;;10.32;5.70;;;27.30;35.40;;;;;;5077646;28;20013;-66
2023/09/28 10:01:47;;;;;;;8.90;5.70;;;27.20;36.20;;;;;;5077569;28;20028;-66
2023/09/28 10:04:16;;;;;;;11.45;5.82;;;27.20;35.90;;;;;;5076550;28;20032;-65
2023/09/28 10:06:51;;;;;;;11.82;5.60;;;27.20;35.80;;;;;;5077123;28;20441;-63
2023/09/28 10:09:20;;;;;;;8.38;5.20;;;27.10;35.60;;;;;;5077406;28;20035;-66
2023/09/28 10:11:49;;;;;;;8.35;5.45;;;27.20;36.50;;;;;;5077342;28;20025;-66
2023/09/28 10:14:21;;;;;;;8.95;5.53;;;27.30;36.80;;;;;;5077213;28;20070;-66
2023/09/28 10:16:53;;;;;;;11.25;5.50;;;27.30;36.70;;;;;;5077175;28;20017;-66
2023/09/28 10:19:22;;;;;;;11.73;5.47;;;27.20;36.30;;;;;;5076065;28;20546;-64
2023/09/28 10:21:51;;;;;;;13.95;5.32;;;27.30;36.10;;;;;;5077162;28;20028;-65
2023/09/28 10:24:17;;;;;;;9.65;5.57;;;27.30;36.60;;;;;;5076263;28;20464;-67
2023/09/28 10:26:51;;;;;;;10.80;5.72;;;27.20;36.90;;;;;;5075806;28;20056;-65
2023/09/28 10:29:23;;;;;;;9.38;5.50;;;27.20;37.10;;;;;;5076745;28;20172;-65
2023/09/28 10:31:53;;;;;;;11.40;5.47;;;27.20;36.70;;;;;;5075701;28;20357;-66
2023/09/28 10:34:20;;;;;;;8.93;5.50;;;27.20;38.00;;;;;;5077066;28;20025;-68
2023/09/28 10:37:13;;;;;;;7.55;5.30;;;27.20;37.70;;;;;;5076417;28;20044;-66
2023/09/28 10:39:41;;;;;;;10.85;5.68;;;27.30;38.10;;;;;;5076342;28;20032;-66
2023/09/28 10:42:16;;;;;;;11.35;5.63;;;27.30;38.50;;;;;;5076608;28;20028;-69
2023/09/28 10:44:48;;;;;;;12.13;5.68;;;27.30;38.90;;;;;;5075209;28;20434;-65
2023/09/28 10:47:15;;;;;;;10.65;5.85;;;27.40;38.90;;;;;;5076808;28;20152;-64
2023/09/28 10:49:41;;;;;;;14.73;5.90;;;27.40;38.50;;;;;;5076129;28;20338;-66
2023/09/28 10:52:11;;;;;;;9.23;5.88;;;27.50;39.20;;;;;;5076741;28;20024;-64
2023/09/28 10:54:44;;;;;;;9.77;5.70;;;27.60;39.30;;;;;;5076378;28;20411;-65
2023/09/28 10:57:10;;;;;;;10.48;5.85;;;27.60;37.50;;;;;;5076043;28;20095;-66
2023/09/28 10:59:37;;;;;;;9.50;5.45;;;27.60;37.60;;;;;;5075793;28;20043;-66
2023/09/28 11:02:04;;;;;;;9.68;5.60;;;27.70;36.90;;;;;;5075050;28;20025;-67
2023/09/28 11:04:31;;;;;;;9.85;5.60;;;27.60;36.80;;;;;;5075320;28;20023;-65
2023/09/28 11:07:00;;;;;;;9.25;5.75;;;27.60;36.60;;;;;;5075951;28;20060;-63
2023/09/28 11:09:29;;;;;;;11.80;5.90;;;27.60;36.10;;;;;;5074939;28;20025;-65
2023/09/28 11:11:55;;;;;;;10.80;5.70;;;27.70;36.80;;;;;;5075031;28;20021;-65
2023/09/28 11:14:25;;;;;;;12.00;5.65;;;27.70;36.60;;;;;;5076252;28;20492;-66
2023/09/28 11:16:52;;;;;;;9.32;5.25;;;27.70;36.60;;;;;;5075409;28;20095;-65
2023/09/28 11:19:19;;;;;;;10.15;5.70;;;27.70;37.00;;;;;;5075696;28;20020;-68
2023/09/28 11:21:45;;;;;;;10.05;5.38;;;27.80;36.10;;;;;;5076279;28;20095;-66
2023/09/28 11:24:11;;;;;;;10.43;5.82;;;27.80;36.70;;;;;;5075881;28;20055;-66
2023/09/28 11:26:39;;;;;;;11.20;5.93;;;27.80;36.70;;;;;;5075693;28;20434;-65
2023/09/28 11:29:05;;;;;;;11.95;5.90;;;27.90;36.70;;;;;;5074700;28;20396;-65
2023/09/28 11:31:35;;;;;;;9.63;5.57;;;27.80;34.90;;;;;;5075589;28;20430;-63
2023/09/28 11:34:03;;;;;;;10.90;5.53;;;27.80;35.80;;;;;;5075559;28;20036;-66
2023/09/28 11:36:29;;;;;;;9.77;5.93;;;27.90;36.80;;;;;;5074746;28;20044;-68
2023/09/28 11:38:57;;;;;;;11.48;6.13;;;27.90;34.90;;;;;;5075474;28;20029;-65
2023/09/28 11:41:23;;;;;;;11.18;5.78;;;27.80;34.40;;;;;;5075513;28;20029;-63
2023/09/28 11:43:53;;;;;;;13.45;5.80;;;27.80;35.50;;;;;;5075457;28;20024;-67
2023/09/28 11:46:27;;;;;;;11.60;5.97;;;27.70;35.50;;;;;;5075341;28;20042;-67
2023/09/28 11:49:11;;;;;;;10.90;5.65;;;27.60;35.40;;;;;;5075446;28;20042;-66
2023/09/28 11:51:37;;;;;;;;;;;27.70;35.90;;;;;;5075845;28;20036;-63
2023/09/28 11:54:14;;;;;;;8.77;5.85;;;27.70;35.10;;;;;;5075596;28;20000;-64
2023/09/28 11:56:41;;;;;;;10.25;5.80;;;27.80;35.50;;;;;;5075645;28;20064;-67
2023/09/28 11:59:09;;;;;;;10.82;5.63;;;27.90;35.20;;;;;;5075231;28;20028;-63
2023/09/28 12:01:35;;;;;;;13.30;5.80;;;27.90;35.30;;;;;;5075284;28;20100;-63
2023/09/28 12:04:02;;;;;;;10.13;6.00;;;27.90;34.90;;;;;;5075612;28;20060;-63
2023/09/28 12:06:28;;;;;;;9.35;5.95;;;27.90;35.40;;;;;;5075232;28;20090;-64
2023/09/28 12:08:55;;;;;;;10.13;5.60;;;27.90;35.80;;;;;;5074292;28;20033;-66
2023/09/28 12:11:21;;;;;;;10.50;5.65;;;28.00;35.70;;;;;;5075491;28;20337;-65
2023/09/28 12:13:47;;;;;;;11.70;5.88;;;28.00;35.40;;;;;;5075477;28;20079;-65
2023/09/28 12:16:13;;;;;;;11.35;5.88;;;28.00;34.70;;;;;;5074127;28;20039;-67
2023/09/28 12:18:39;;;;;;;11.02;5.78;;;28.10;34.50;;;;;;5075647;28;20029;-68
2023/09/28 12:21:06;;;;;;;10.88;5.80;;;28.00;34.60;;;;;;5074143;28;20023;-63
2023/09/28 12:23:32;;;;;;;48.33;9.20;;;27.90;35.50;;;;;;5075340;28;20029;-65
2023/09/28 12:26:01;;;;;;;17.67;6.30;;;28.00;35.80;;;;;;5074031;28;20025;-65
2023/09/28 12:28:27;;;;;;;7.18;5.85;;;28.00;36.30;;;;;;5075003;28;20035;-65
2023/09/28 12:30:54;;;;;;;10.52;5.82;;;28.10;36.30;;;;;;5074040;28;20086;-65
2023/09/28 12:33:20;;;;;;;12.60;5.95;;;28.00;36.40;;;;;;5072059;28;20032;-67
2023/09/28 12:35:47;;;;;;;10.32;6.10;;;28.00;35.00;;;;;;5072883;28;20052;-67
2023/09/28 12:38:13;;;;;;;10.43;5.80;;;27.90;35.80;;;;;;5073234;28;20426;-65
2023/09/28 12:40:39;;;;;;;10.02;5.55;;;27.80;35.30;;;;;;5073340;28;20115;-63
2023/09/28 12:43:05;;;;;;;10.30;6.20;;;27.80;35.60;;;;;;5073392;28;20052;-67
2023/09/28 12:45:38;;;;;;;12.05;5.97;;;27.80;35.70;;;;;;5073270;28;20434;-68
2023/09/28 12:48:05;;;;;;;11.13;5.85;;;27.80;35.80;;;;;;5077571;28;20025;-67
2023/09/28 12:50:33;;;;;;;10.95;6.38;;;27.90;35.80;;;;;;5077682;28;20438;-66
2023/09/28 12:52:59;;;;;;;9.93;5.90;;;27.80;35.60;;;;;;5078578;28;20020;-68